sensor_id;sensor_type;location;lat;lon;timestamp;pressure;altitude;pressure_sealevel;temperature;humidity
40994;BME280;26722;43.212;27.932;2023-04-25T00:01:33;55094.97;;;-146.72;85.59
40994;BME280;26722;43.212;27.932;2023-04-25T00:04:03;55111.88;;;-146.72;85.39
40994;BME280;26722;43.212;27.932;2023-04-25T00:06:29;55109.75;;;-146.72;85.38
40994;BME280;26722;43.212;27.932;2023-04-25T00:08:55;55099.19;;;-146.72;85.88
40994;BME280;26722;43.212;27.932;2023-04-25T00:11:22;55107.66;;;-146.72;85.90
40994;BME280;26722;43.212;27.932;2023-04-25T00:13:47;55111.88;;;-146.72;85.90
40994;BME280;26722;43.212;27.932;2023-04-25T00:16:14;55111.88;;;-146.72;86.44
40994;BME280;26722;43.212;27.932;2023-04-25T00:18:42;55107.66;;;-146.72;85.71
40994;BME280;26722;43.212;27.932;2023-04-25T00:21:07;55097.09;;;-146.72;86.14
40994;BME280;26722;43.212;27.932;2023-04-25T00:23:33;55097.09;;;-146.72;85.98
40994;BME280;26722;43.212;27.932;2023-04-25T00:26:00;55113.97;;;-146.72;86.02
40994;BME280;26722;43.212;27.932;2023-04-25T00:28:26;55107.66;;;-146.72;85.94
40994;BME280;26722;43.212;27.932;2023-04-25T00:30:51;55094.97;;;-146.72;85.97
40994;BME280;26722;43.212;27.932;2023-04-25T00:33:17;55109.75;;;-146.72;85.81
40994;BME280;26722;43.212;27.932;2023-04-25T00:35:42;55107.66;;;-146.72;86.31
40994;BME280;26722;43.212;27.932;2023-04-25T00:38:08;55113.97;;;-146.72;86.57
40994;BME280;26722;43.212;27.932;2023-04-25T00:40:33;55103.44;;;-146.72;86.41
40994;BME280;26722;43.212;27.932;2023-04-25T00:42:59;55078.09;;;-146.72;86.84
40994;BME280;26722;43.212;27.932;2023-04-25T00:45:28;55124.53;;;-146.72;86.76
40994;BME280;26722;43.212;27.932;2023-04-25T00:47:54;55120.31;;;-146.72;86.69
40994;BME280;26722;43.212;27.932;2023-04-25T00:50:20;55111.88;;;-146.72;87.12
40994;BME280;26722;43.212;27.932;2023-04-25T00:52:46;55092.88;;;-146.72;86.81
40994;BME280;26722;43.212;27.932;2023-04-25T00:55:12;55120.31;;;-146.72;87.31
40994;BME280;26722;43.212;27.932;2023-04-25T00:57:38;55124.53;;;-146.72;87.18
40994;BME280;26722;43.212;27.932;2023-04-25T01:00:05;55107.66;;;-146.72;87.49
40994;BME280;26722;43.212;27.932;2023-04-25T01:02:33;55090.75;;;-146.72;87.46
40994;BME280;26722;43.212;27.932;2023-04-25T01:05:00;55101.31;;;-146.72;87.50
40994;BME280;26722;43.212;27.932;2023-04-25T01:07:26;55122.44;;;-146.72;87.02
40994;BME280;26722;43.212;27.932;2023-04-25T01:09:51;55090.75;;;-146.72;87.61
40994;BME280;26722;43.212;27.932;2023-04-25T01:12:17;55109.75;;;-146.72;87.73
40994;BME280;26722;43.212;27.932;2023-04-25T01:14:43;55111.88;;;-146.72;87.65
40994;BME280;26722;43.212;27.932;2023-04-25T01:17:09;55099.19;;;-146.72;87.66
40994;BME280;26722;43.212;27.932;2023-04-25T01:19:35;55113.97;;;-146.72;87.28
40994;BME280;26722;43.212;27.932;2023-04-25T01:22:00;55116.09;;;-146.72;86.91
40994;BME280;26722;43.212;27.932;2023-04-25T01:24:26;55130.88;;;-146.72;87.00
40994;BME280;26722;43.212;27.932;2023-04-25T01:26:52;55111.88;;;-146.72;86.96
40994;BME280;26722;43.212;27.932;2023-04-25T01:29:20;55105.53;;;-146.72;86.86
40994;BME280;26722;43.212;27.932;2023-04-25T01:31:46;55113.97;;;-146.72;87.12
40994;BME280;26722;43.212;27.932;2023-04-25T01:34:14;55099.19;;;-146.72;87.15
40994;BME280;26722;43.212;27.932;2023-04-25T01:36:40;55124.53;;;-146.72;87.57
40994;BME280;26722;43.212;27.932;2023-04-25T01:39:06;55111.88;;;-146.72;87.15
40994;BME280;26722;43.212;27.932;2023-04-25T01:41:32;55103.44;;;-146.72;87.08
40994;BME280;26722;43.212;27.932;2023-04-25T01:44:00;55118.19;;;-146.72;87.20
40994;BME280;26722;43.212;27.932;2023-04-25T01:46:25;55101.31;;;-146.72;87.34
40994;BME280;26722;43.212;27.932;2023-04-25T01:48:51;55122.44;;;-146.72;87.07
40994;BME280;26722;43.212;27.932;2023-04-25T01:51:16;55107.66;;;-146.72;87.04
40994;BME280;26722;43.212;27.932;2023-04-25T01:53:42;55120.31;;;-146.72;87.45
40994;BME280;26722;43.212;27.932;2023-04-25T01:56:08;55116.09;;;-146.72;86.86
40994;BME280;26722;43.212;27.932;2023-04-25T01:58:33;55099.19;;;-146.72;87.35
40994;BME280;26722;43.212;27.932;2023-04-25T02:00:59;55099.19;;;-146.72;87.32
40994;BME280;26722;43.212;27.932;2023-04-25T02:03:25;55128.75;;;-146.72;87.09
40994;BME280;26722;43.212;27.932;2023-04-25T02:05:50;55111.88;;;-146.72;87.58
40994;BME280;26722;43.212;27.932;2023-04-25T02:08:16;55124.53;;;-146.72;87.20
40994;BME280;26722;43.212;27.932;2023-04-25T02:10:42;55101.31;;;-146.72;86.83
40994;BME280;26722;43.212;27.932;2023-04-25T02:13:08;55107.66;;;-146.72;87.02
40994;BME280;26722;43.212;27.932;2023-04-25T02:15:33;55099.19;;;-146.72;86.74
40994;BME280;26722;43.212;27.932;2023-04-25T02:17:58;55109.75;;;-146.72;86.20
40994;BME280;26722;43.212;27.932;2023-04-25T02:20:25;55107.66;;;-146.72;86.30
40994;BME280;26722;43.212;27.932;2023-04-25T02:22:51;55103.44;;;-146.72;85.70
40994;BME280;26722;43.212;27.932;2023-04-25T02:25:18;55099.19;;;-146.72;85.37
40994;BME280;26722;43.212;27.932;2023-04-25T02:27:45;55097.09;;;-146.72;85.81
40994;BME280;26722;43.212;27.932;2023-04-25T02:30:11;55107.66;;;-146.72;85.49
40994;BME280;26722;43.212;27.932;2023-04-25T02:32:38;55086.53;;;-146.72;85.45
40994;BME280;26722;43.212;27.932;2023-04-25T02:35:04;55103.44;;;-146.72;85.62
40994;BME280;26722;43.212;27.932;2023-04-25T02:37:34;55107.66;;;-146.72;85.81
40994;BME280;26722;43.212;27.932;2023-04-25T02:40:00;55118.19;;;-146.72;86.04
40994;BME280;26722;43.212;27.932;2023-04-25T02:42:26;55107.66;;;-146.72;86.03
40994;BME280;26722;43.212;27.932;2023-04-25T02:44:52;55111.88;;;-146.72;86.37
40994;BME280;26722;43.212;27.932;2023-04-25T02:47:17;55111.88;;;-146.72;86.14
40994;BME280;26722;43.212;27.932;2023-04-25T02:49:43;55118.19;;;-146.72;86.62
40994;BME280;26722;43.212;27.932;2023-04-25T02:52:08;55111.88;;;-146.72;86.89
40994;BME280;26722;43.212;27.932;2023-04-25T02:54:34;55111.88;;;-146.72;86.65
40994;BME280;26722;43.212;27.932;2023-04-25T02:56:59;55111.88;;;-146.72;87.02
40994;BME280;26722;43.212;27.932;2023-04-25T02:59:26;55107.66;;;-146.72;87.07
40994;BME280;26722;43.212;27.932;2023-04-25T03:01:51;55099.19;;;-146.72;87.16
40994;BME280;26722;43.212;27.932;2023-04-25T03:04:17;55099.19;;;-146.72;87.33
40994;BME280;26722;43.212;27.932;2023-04-25T03:06:44;55111.88;;;-146.72;87.33
40994;BME280;26722;43.212;27.932;2023-04-25T03:09:09;55109.75;;;-146.72;87.04
40994;BME280;26722;43.212;27.932;2023-04-25T03:11:36;55094.97;;;-146.72;86.88
40994;BME280;26722;43.212;27.932;2023-04-25T03:14:01;55118.19;;;-146.72;87.21
40994;BME280;26722;43.212;27.932;2023-04-25T03:16:27;55086.53;;;-146.72;86.84
40994;BME280;26722;43.212;27.932;2023-04-25T03:18:52;55111.88;;;-146.72;87.54
40994;BME280;26722;43.212;27.932;2023-04-25T03:21:18;55094.97;;;-146.72;87.63
40994;BME280;26722;43.212;27.932;2023-04-25T03:23:43;55099.19;;;-146.72;87.85
40994;BME280;26722;43.212;27.932;2023-04-25T03:26:09;55105.53;;;-146.72;87.88
40994;BME280;26722;43.212;27.932;2023-04-25T03:28:35;55111.88;;;-146.72;88.21
40994;BME280;26722;43.212;27.932;2023-04-25T03:31:00;55099.19;;;-146.72;88.22
40994;BME280;26722;43.212;27.932;2023-04-25T03:33:26;55101.31;;;-146.72;87.97
40994;BME280;26722;43.212;27.932;2023-04-25T03:35:51;55090.75;;;-146.72;87.75
40994;BME280;26722;43.212;27.932;2023-04-25T03:38:17;55116.09;;;-146.72;88.10
40994;BME280;26722;43.212;27.932;2023-04-25T03:40:42;55101.31;;;-146.72;88.13
40994;BME280;26722;43.212;27.932;2023-04-25T03:43:08;55101.31;;;-146.72;88.39
40994;BME280;26722;43.212;27.932;2023-04-25T03:45:33;55107.66;;;-146.72;88.41
40994;BME280;26722;43.212;27.932;2023-04-25T03:47:59;55107.66;;;-146.72;88.67
40994;BME280;26722;43.212;27.932;2023-04-25T03:50:24;55078.09;;;-146.72;88.98
40994;BME280;26722;43.212;27.932;2023-04-25T03:52:50;55094.97;;;-146.72;88.81
40994;BME280;26722;43.212;27.932;2023-04-25T03:55:15;55111.88;;;-146.72;89.56
40994;BME280;26722;43.212;27.932;2023-04-25T03:57:41;55103.44;;;-146.72;89.40
40994;BME280;26722;43.212;27.932;2023-04-25T04:00:07;55116.09;;;-146.72;89.56
40994;BME280;26722;43.212;27.932;2023-04-25T04:02:32;55113.97;;;-146.72;90.08
40994;BME280;26722;43.212;27.932;2023-04-25T04:05:00;55109.75;;;-146.72;89.83
40994;BME280;26722;43.212;27.932;2023-04-25T04:07:25;55103.44;;;-146.72;89.99
40994;BME280;26722;43.212;27.932;2023-04-25T04:09:50;55103.44;;;-146.72;89.53
40994;BME280;26722;43.212;27.932;2023-04-25T04:12:16;55113.97;;;-146.72;89.92
40994;BME280;26722;43.212;27.932;2023-04-25T04:14:41;55094.97;;;-146.72;88.34
40994;BME280;26722;43.212;27.932;2023-04-25T04:17:07;55082.31;;;-146.72;85.00
40994;BME280;26722;43.212;27.932;2023-04-25T04:19:32;55073.88;;;-146.72;81.40
40994;BME280;26722;43.212;27.932;2023-04-25T04:21:57;55059.09;;;-146.72;80.19
40994;BME280;26722;43.212;27.932;2023-04-25T04:24:23;55061.19;;;-146.72;78.67
40994;BME280;26722;43.212;27.932;2023-04-25T04:26:49;55065.41;;;-146.72;77.03
40994;BME280;26722;43.212;27.932;2023-04-25T04:29:15;55052.75;;;-146.72;75.85
40994;BME280;26722;43.212;27.932;2023-04-25T04:31:49;55061.19;;;-146.72;75.27
40994;BME280;26722;43.212;27.932;2023-04-25T04:34:14;55059.09;;;-146.72;75.66
40994;BME280;26722;43.212;27.932;2023-04-25T04:36:41;55048.53;;;-146.72;76.05
40994;BME280;26722;43.212;27.932;2023-04-25T04:39:07;55050.66;;;-146.72;77.06
40994;BME280;26722;43.212;27.932;2023-04-25T04:41:34;55073.88;;;-146.72;77.65
40994;BME280;26722;43.212;27.932;2023-04-25T04:44:00;55052.75;;;-146.72;77.47
40994;BME280;26722;43.212;27.932;2023-04-25T04:46:26;55048.53;;;-146.72;77.66
40994;BME280;26722;43.212;27.932;2023-04-25T04:48:53;55046.41;;;-146.72;77.25
40994;BME280;26722;43.212;27.932;2023-04-25T04:51:19;55067.53;;;-146.72;76.95
40994;BME280;26722;43.212;27.932;2023-04-25T04:53:44;55054.88;;;-146.72;76.42
40994;BME280;26722;43.212;27.932;2023-04-25T04:56:10;55061.19;;;-146.72;75.96
40994;BME280;26722;43.212;27.932;2023-04-25T04:58:36;55059.09;;;-146.72;75.53
40994;BME280;26722;43.212;27.932;2023-04-25T05:01:02;55063.31;;;-146.72;74.97
40994;BME280;26722;43.212;27.932;2023-04-25T05:03:28;55065.41;;;-146.72;74.76
40994;BME280;26722;43.212;27.932;2023-04-25T05:05:53;55078.09;;;-146.72;74.44
40994;BME280;26722;43.212;27.932;2023-04-25T05:08:19;55061.19;;;-146.72;74.67
40994;BME280;26722;43.212;27.932;2023-04-25T05:10:44;55059.09;;;-146.72;74.30
40994;BME280;26722;43.212;27.932;2023-04-25T05:13:10;55056.97;;;-146.72;74.96
40994;BME280;26722;43.212;27.932;2023-04-25T05:15:35;55063.31;;;-146.72;74.50
40994;BME280;26722;43.212;27.932;2023-04-25T05:18:01;55050.66;;;-146.72;73.59
40994;BME280;26722;43.212;27.932;2023-04-25T05:20:26;55063.31;;;-146.72;73.76
40994;BME280;26722;43.212;27.932;2023-04-25T05:22:52;55071.75;;;-146.72;73.49
40994;BME280;26722;43.212;27.932;2023-04-25T05:25:17;55048.53;;;-146.72;73.15
40994;BME280;26722;43.212;27.932;2023-04-25T05:27:43;55052.75;;;-146.72;72.83
40994;BME280;26722;43.212;27.932;2023-04-25T05:30:08;55065.41;;;-146.72;71.18
40994;BME280;26722;43.212;27.932;2023-04-25T05:32:34;55052.75;;;-146.72;71.07
40994;BME280;26722;43.212;27.932;2023-04-25T05:35:01;55048.53;;;-146.72;69.98
40994;BME280;26722;43.212;27.932;2023-04-25T05:37:26;55052.75;;;-146.72;69.53
40994;BME280;26722;43.212;27.932;2023-04-25T05:39:51;55035.88;;;-146.72;69.38
40994;BME280;26722;43.212;27.932;2023-04-25T05:42:17;55031.66;;;-146.72;68.67
40994;BME280;26722;43.212;27.932;2023-04-25T05:44:42;55035.88;;;-146.72;68.07
40994;BME280;26722;43.212;27.932;2023-04-25T05:47:08;55029.53;;;-146.72;67.57
40994;BME280;26722;43.212;27.932;2023-04-25T05:49:34;55048.53;;;-146.72;68.63
40994;BME280;26722;43.212;27.932;2023-04-25T05:52:00;55048.53;;;-146.72;69.10
40994;BME280;26722;43.212;27.932;2023-04-25T05:54:25;55035.88;;;-146.72;68.13
40994;BME280;26722;43.212;27.932;2023-04-25T05:56:51;55037.97;;;-146.72;67.22
40994;BME280;26722;43.212;27.932;2023-04-25T05:59:16;55044.31;;;-146.72;66.33
40994;BME280;26722;43.212;27.932;2023-04-25T06:01:41;55031.66;;;-146.72;65.29
40994;BME280;26722;43.212;27.932;2023-04-25T06:04:07;55037.97;;;-146.72;65.44
40994;BME280;26722;43.212;27.932;2023-04-25T06:06:32;55031.66;;;-146.72;65.74
40994;BME280;26722;43.212;27.932;2023-04-25T06:08:58;55021.09;;;-146.72;65.83
40994;BME280;26722;43.212;27.932;2023-04-25T06:11:23;55029.53;;;-146.72;65.34
40994;BME280;26722;43.212;27.932;2023-04-25T06:13:49;55035.88;;;-146.72;65.40
40994;BME280;26722;43.212;27.932;2023-04-25T06:16:14;55021.09;;;-146.72;64.36
40994;BME280;26722;43.212;27.932;2023-04-25T06:18:41;55037.97;;;-146.72;64.09
40994;BME280;26722;43.212;27.932;2023-04-25T06:21:06;55021.09;;;-146.72;63.76
40994;BME280;26722;43.212;27.932;2023-04-25T06:23:32;55023.19;;;-146.72;64.17
40994;BME280;26722;43.212;27.932;2023-04-25T06:25:57;55014.75;;;-146.72;63.82
40994;BME280;26722;43.212;27.932;2023-04-25T06:28:23;55027.41;;;-146.72;63.45
40994;BME280;26722;43.212;27.932;2023-04-25T06:30:49;55037.97;;;-146.72;63.43
40994;BME280;26722;43.212;27.932;2023-04-25T06:33:15;55021.09;;;-146.72;63.40
40994;BME280;26722;43.212;27.932;2023-04-25T06:35:40;55010.53;;;-146.72;62.70
40994;BME280;26722;43.212;27.932;2023-04-25T06:38:06;55037.97;;;-146.72;61.55
40994;BME280;26722;43.212;27.932;2023-04-25T06:40:31;55010.53;;;-146.72;60.62
40994;BME280;26722;43.212;27.932;2023-04-25T06:42:57;55010.53;;;-146.72;61.11
40994;BME280;26722;43.212;27.932;2023-04-25T06:45:22;55012.63;;;-146.72;61.44
40994;BME280;26722;43.212;27.932;2023-04-25T06:47:48;55023.19;;;-146.72;61.86
40994;BME280;26722;43.212;27.932;2023-04-25T06:50:13;55018.97;;;-146.72;60.93
40994;BME280;26722;43.212;27.932;2023-04-25T06:52:38;55016.88;;;-146.72;61.00
40994;BME280;26722;43.212;27.932;2023-04-25T06:55:04;55040.09;;;-146.72;61.70
40994;BME280;26722;43.212;27.932;2023-04-25T06:57:30;55035.88;;;-146.72;62.64
40994;BME280;26722;43.212;27.932;2023-04-25T06:59:56;55035.88;;;-146.72;62.80
40994;BME280;26722;43.212;27.932;2023-04-25T07:02:21;55023.19;;;-146.72;62.81
40994;BME280;26722;43.212;27.932;2023-04-25T07:04:47;55016.88;;;-146.72;62.08
40994;BME280;26722;43.212;27.932;2023-04-25T07:07:13;55023.19;;;-146.72;62.15
40994;BME280;26722;43.212;27.932;2023-04-25T07:09:38;55014.75;;;-146.72;61.58
40994;BME280;26722;43.212;27.932;2023-04-25T07:12:04;55002.09;;;-146.72;60.98
40994;BME280;26722;43.212;27.932;2023-04-25T07:14:29;55021.09;;;-146.72;60.75
40994;BME280;26722;43.212;27.932;2023-04-25T07:16:55;55029.53;;;-146.72;61.22
40994;BME280;26722;43.212;27.932;2023-04-25T07:19:22;55014.75;;;-146.72;61.47
40994;BME280;26722;43.212;27.932;2023-04-25T07:21:51;55023.19;;;-146.72;61.01
40994;BME280;26722;43.212;27.932;2023-04-25T07:24:17;55035.88;;;-146.72;60.56
40994;BME280;26722;43.212;27.932;2023-04-25T07:26:42;55021.09;;;-146.72;60.66
40994;BME280;26722;43.212;27.932;2023-04-25T07:29:08;55035.88;;;-146.72;61.52
40994;BME280;26722;43.212;27.932;2023-04-25T07:31:33;55021.09;;;-146.72;60.03
40994;BME280;26722;43.212;27.932;2023-04-25T07:33:59;55025.31;;;-146.72;59.19
40994;BME280;26722;43.212;27.932;2023-04-25T07:36:24;55023.19;;;-146.72;60.11
40994;BME280;26722;43.212;27.932;2023-04-25T07:38:51;55031.66;;;-146.72;59.62
40994;BME280;26722;43.212;27.932;2023-04-25T07:41:17;55012.63;;;-146.72;60.29
40994;BME280;26722;43.212;27.932;2023-04-25T07:43:42;55029.53;;;-146.72;59.87
40994;BME280;26722;43.212;27.932;2023-04-25T07:46:07;55025.31;;;-146.72;59.65
40994;BME280;26722;43.212;27.932;2023-04-25T07:48:33;55012.63;;;-146.72;60.14
40994;BME280;26722;43.212;27.932;2023-04-25T07:50:58;55010.53;;;-146.72;60.36
40994;BME280;26722;43.212;27.932;2023-04-25T07:53:24;55023.19;;;-146.72;60.31
40994;BME280;26722;43.212;27.932;2023-04-25T07:55:50;55063.31;;;-146.72;61.18
40994;BME280;26722;43.212;27.932;2023-04-25T07:58:16;55037.97;;;-146.72;61.59
40994;BME280;26722;43.212;27.932;2023-04-25T08:00:46;55037.97;;;-146.72;62.04
40994;BME280;26722;43.212;27.932;2023-04-25T08:03:11;55044.31;;;-146.72;62.20
40994;BME280;26722;43.212;27.932;2023-04-25T08:05:37;55033.75;;;-146.72;62.77
40994;BME280;26722;43.212;27.932;2023-04-25T08:08:03;55023.19;;;-146.72;62.44
40994;BME280;26722;43.212;27.932;2023-04-25T08:10:29;54997.88;;;-146.72;61.49
40994;BME280;26722;43.212;27.932;2023-04-25T08:12:55;55027.41;;;-146.72;60.86
40994;BME280;26722;43.212;27.932;2023-04-25T08:15:20;55035.88;;;-146.72;61.69
40994;BME280;26722;43.212;27.932;2023-04-25T08:17:46;55027.41;;;-146.72;61.80
40994;BME280;26722;43.212;27.932;2023-04-25T08:20:12;55021.09;;;-146.72;61.93
40994;BME280;26722;43.212;27.932;2023-04-25T08:22:37;55054.88;;;-146.72;61.99
40994;BME280;26722;43.212;27.932;2023-04-25T08:25:03;55033.75;;;-146.72;61.45
40994;BME280;26722;43.212;27.932;2023-04-25T08:27:28;55018.97;;;-146.72;61.67
40994;BME280;26722;43.212;27.932;2023-04-25T08:29:54;55040.09;;;-146.72;62.27
40994;BME280;26722;43.212;27.932;2023-04-25T08:32:19;55027.41;;;-146.72;62.75
40994;BME280;26722;43.212;27.932;2023-04-25T08:34:46;55037.97;;;-146.72;62.70
40994;BME280;26722;43.212;27.932;2023-04-25T08:37:12;55018.97;;;-146.72;62.23
40994;BME280;26722;43.212;27.932;2023-04-25T08:39:37;55029.53;;;-146.72;61.57
40994;BME280;26722;43.212;27.932;2023-04-25T08:42:06;55012.63;;;-146.72;61.04
40994;BME280;26722;43.212;27.932;2023-04-25T08:44:35;55018.97;;;-146.72;61.06
40994;BME280;26722;43.212;27.932;2023-04-25T08:47:04;55023.19;;;-146.72;61.45
40994;BME280;26722;43.212;27.932;2023-04-25T08:49:34;55027.41;;;-146.72;60.16
40994;BME280;26722;43.212;27.932;2023-04-25T08:52:00;55002.09;;;-146.72;60.91
40994;BME280;26722;43.212;27.932;2023-04-25T08:54:27;55021.09;;;-146.72;61.57
40994;BME280;26722;43.212;27.932;2023-04-25T08:56:54;55035.88;;;-146.72;60.49
40994;BME280;26722;43.212;27.932;2023-04-25T08:59:21;55014.75;;;-146.72;59.21
40994;BME280;26722;43.212;27.932;2023-04-25T09:01:49;55018.97;;;-146.72;58.85
40994;BME280;26722;43.212;27.932;2023-04-25T09:04:15;55004.19;;;-146.72;57.64
40994;BME280;26722;43.212;27.932;2023-04-25T09:06:40;55037.97;;;-146.72;58.01
40994;BME280;26722;43.212;27.932;2023-04-25T09:09:08;55027.41;;;-146.72;56.13
40994;BME280;26722;43.212;27.932;2023-04-25T09:11:35;54999.97;;;-146.72;56.26
40994;BME280;26722;43.212;27.932;2023-04-25T09:14:20;55018.97;;;-146.72;55.96
40994;BME280;26722;43.212;27.932;2023-04-25T09:19:30;55006.31;;;-146.72;56.49
40994;BME280;26722;43.212;27.932;2023-04-25T09:22:01;55006.31;;;-146.72;55.67
40994;BME280;26722;43.212;27.932;2023-04-25T09:26:56;55010.53;;;-146.72;56.26
40994;BME280;26722;43.212;27.932;2023-04-25T09:29:29;54999.97;;;-146.72;55.82
40994;BME280;26722;43.212;27.932;2023-04-25T09:34:43;55021.09;;;-146.72;55.72
40994;BME280;26722;43.212;27.932;2023-04-25T09:37:10;55004.19;;;-146.72;55.50
40994;BME280;26722;43.212;27.932;2023-04-25T09:39:37;54997.88;;;-146.72;54.67
40994;BME280;26722;43.212;27.932;2023-04-25T09:42:04;55006.31;;;-146.72;54.73
40994;BME280;26722;43.212;27.932;2023-04-25T09:44:29;54989.41;;;-146.72;54.77
40994;BME280;26722;43.212;27.932;2023-04-25T09:46:55;54993.63;;;-146.72;55.03
40994;BME280;26722;43.212;27.932;2023-04-25T09:49:20;55002.09;;;-146.72;54.84
40994;BME280;26722;43.212;27.932;2023-04-25T09:51:59;55002.09;;;-146.72;55.01
40994;BME280;26722;43.212;27.932;2023-04-25T09:54:26;55012.63;;;-146.72;54.75
40994;BME280;26722;43.212;27.932;2023-04-25T09:56:52;55016.88;;;-146.72;54.76
40994;BME280;26722;43.212;27.932;2023-04-25T09:59:20;54987.31;;;-146.72;53.53
40994;BME280;26722;43.212;27.932;2023-04-25T10:01:48;54989.41;;;-146.72;54.06
40994;BME280;26722;43.212;27.932;2023-04-25T10:04:20;54976.75;;;-146.72;53.41
40994;BME280;26722;43.212;27.932;2023-04-25T10:06:49;54972.53;;;-146.72;52.25
40994;BME280;26722;43.212;27.932;2023-04-25T10:09:21;54993.63;;;-146.72;52.50
40994;BME280;26722;43.212;27.932;2023-04-25T10:11:48;54985.19;;;-146.72;51.30
40994;BME280;26722;43.212;27.932;2023-04-25T10:14:16;54959.88;;;-146.72;50.74
40994;BME280;26722;43.212;27.932;2023-04-25T10:16:42;54953.53;;;-146.72;49.55
40994;BME280;26722;43.212;27.932;2023-04-25T10:19:09;54957.75;;;-146.72;49.11
40994;BME280;26722;43.212;27.932;2023-04-25T10:21:40;54955.63;;;-146.72;49.53
40994;BME280;26722;43.212;27.932;2023-04-25T10:24:11;54951.41;;;-146.72;49.08
40994;BME280;26722;43.212;27.932;2023-04-25T10:26:36;54968.31;;;-146.72;49.65
40994;BME280;26722;43.212;27.932;2023-04-25T10:29:03;54957.75;;;-146.72;49.31
40994;BME280;26722;43.212;27.932;2023-04-25T10:31:32;54953.53;;;-146.72;49.10
40994;BME280;26722;43.212;27.932;2023-04-25T10:33:59;54968.31;;;-146.72;49.84
40994;BME280;26722;43.212;27.932;2023-04-25T10:36:25;54959.88;;;-146.72;50.40
40994;BME280;26722;43.212;27.932;2023-04-25T10:38:54;54980.97;;;-146.72;50.93
40994;BME280;26722;43.212;27.932;2023-04-25T10:41:20;54970.41;;;-146.72;50.93
40994;BME280;26722;43.212;27.932;2023-04-25T10:43:48;54976.75;;;-146.72;51.70
40994;BME280;26722;43.212;27.932;2023-04-25T10:46:27;54970.41;;;-146.72;52.01
40994;BME280;26722;43.212;27.932;2023-04-25T10:48:58;54970.41;;;-146.72;51.25
40994;BME280;26722;43.212;27.932;2023-04-25T10:54:01;54972.53;;;-146.72;53.42
40994;BME280;26722;43.212;27.932;2023-04-25T10:59:26;54993.63;;;-146.72;53.51
40994;BME280;26722;43.212;27.932;2023-04-25T11:01:53;54989.41;;;-146.72;54.15
40994;BME280;26722;43.212;27.932;2023-04-25T11:04:23;54989.41;;;-146.72;56.14
40994;BME280;26722;43.212;27.932;2023-04-25T11:09:40;55014.75;;;-146.72;55.92
40994;BME280;26722;43.212;27.932;2023-04-25T11:12:08;55014.75;;;-146.72;57.13
40994;BME280;26722;43.212;27.932;2023-04-25T11:14:35;54995.75;;;-146.72;57.43
40994;BME280;26722;43.212;27.932;2023-04-25T11:17:00;54997.88;;;-146.72;57.54
40994;BME280;26722;43.212;27.932;2023-04-25T11:19:28;55010.53;;;-146.72;57.47
40994;BME280;26722;43.212;27.932;2023-04-25T11:21:58;54985.19;;;-146.72;56.85
40994;BME280;26722;43.212;27.932;2023-04-25T11:24:29;54993.63;;;-146.72;56.28
40994;BME280;26722;43.212;27.932;2023-04-25T11:26:54;54995.75;;;-146.72;54.59
40994;BME280;26722;43.212;27.932;2023-04-25T11:29:23;54974.63;;;-146.72;53.46
40994;BME280;26722;43.212;27.932;2023-04-25T11:31:52;54980.97;;;-146.72;54.10
40994;BME280;26722;43.212;27.932;2023-04-25T11:34:19;54989.41;;;-146.72;52.90
40994;BME280;26722;43.212;27.932;2023-04-25T11:36:45;54976.75;;;-146.72;53.57
40994;BME280;26722;43.212;27.932;2023-04-25T11:39:11;54968.31;;;-146.72;52.61
40994;BME280;26722;43.212;27.932;2023-04-25T11:41:37;54968.31;;;-146.72;51.97
40994;BME280;26722;43.212;27.932;2023-04-25T11:44:03;54985.19;;;-146.72;51.69
40994;BME280;26722;43.212;27.932;2023-04-25T11:46:29;54987.31;;;-146.72;51.86
40994;BME280;26722;43.212;27.932;2023-04-25T11:48:55;54997.88;;;-146.72;51.60
40994;BME280;26722;43.212;27.932;2023-04-25T11:51:21;54999.97;;;-146.72;52.21
40994;BME280;26722;43.212;27.932;2023-04-25T11:53:46;55002.09;;;-146.72;52.43
40994;BME280;26722;43.212;27.932;2023-04-25T11:56:12;54993.63;;;-146.72;50.91
40994;BME280;26722;43.212;27.932;2023-04-25T11:58:54;54987.31;;;-146.72;51.86
40994;BME280;26722;43.212;27.932;2023-04-25T12:01:31;54980.97;;;-146.72;51.68
40994;BME280;26722;43.212;27.932;2023-04-25T12:03:57;54972.53;;;-146.72;49.83
40994;BME280;26722;43.212;27.932;2023-04-25T12:06:27;54976.75;;;-146.72;48.43
40994;BME280;26722;43.212;27.932;2023-04-25T12:09:03;54976.75;;;-146.72;46.05
40994;BME280;26722;43.212;27.932;2023-04-25T12:11:32;54993.63;;;-146.72;46.41
40994;BME280;26722;43.212;27.932;2023-04-25T12:14:02;55010.53;;;-146.72;48.09
40994;BME280;26722;43.212;27.932;2023-04-25T12:16:29;54985.19;;;-146.72;48.47
40994;BME280;26722;43.212;27.932;2023-04-25T12:18:55;55002.09;;;-146.72;49.59
40994;BME280;26722;43.212;27.932;2023-04-25T12:21:22;54989.41;;;-146.72;49.56
40994;BME280;26722;43.212;27.932;2023-04-25T12:23:47;55023.19;;;-146.72;49.03
40994;BME280;26722;43.212;27.932;2023-04-25T12:26:13;54989.41;;;-146.72;48.45
40994;BME280;26722;43.212;27.932;2023-04-25T12:28:38;54999.97;;;-146.72;48.07
40994;BME280;26722;43.212;27.932;2023-04-25T12:31:05;55002.09;;;-146.72;48.82
40994;BME280;26722;43.212;27.932;2023-04-25T12:33:36;54989.41;;;-146.72;49.39
40994;BME280;26722;43.212;27.932;2023-04-25T12:36:03;54993.63;;;-146.72;50.22
40994;BME280;26722;43.212;27.932;2023-04-25T12:38:36;55006.31;;;-146.72;51.33
40994;BME280;26722;43.212;27.932;2023-04-25T12:41:02;55012.63;;;-146.72;51.34
40994;BME280;26722;43.212;27.932;2023-04-25T12:43:27;55023.19;;;-146.72;52.15